createdAt,value
2022-11-15T00:01:30.540Z,64.01
2022-11-15T00:04:15.769Z,64.15
2022-11-15T00:07:01.051Z,63.97
2022-11-15T00:09:46.366Z,64.00
2022-11-15T00:12:31.776Z,64.00
2022-11-15T00:15:17.222Z,63.81
2022-11-15T00:18:03.556Z,63.28
2022-11-15T00:20:48.592Z,62.65
2022-11-15T00:23:34.549Z,63.38
2022-11-15T00:26:20.052Z,63.25
2022-11-15T00:29:05.373Z,62.47
2022-11-15T00:31:50.606Z,63.12
2022-11-15T00:34:36.031Z,63.83
2022-11-15T00:37:21.172Z,64.46
2022-11-15T00:40:07.119Z,63.69
2022-11-15T00:42:52.448Z,63.62
2022-11-15T00:45:37.526Z,63.11
2022-11-15T00:48:22.758Z,63.71
2022-11-15T00:51:07.846Z,63.98
2022-11-15T00:53:53.241Z,64.45
2022-11-15T00:56:38.330Z,64.71
2022-11-15T00:59:23.534Z,64.69
2022-11-15T01:02:08.694Z,64.84
2022-11-15T01:04:53.926Z,64.59
2022-11-15T01:07:39.243Z,64.56
2022-11-15T01:10:24.874Z,65.12
2022-11-15T01:13:10.048Z,65.56
2022-11-15T01:15:55.836Z,64.90
2022-11-15T01:18:41.697Z,64.94
2022-11-15T01:21:27.021Z,65.26
2022-11-15T01:24:14.005Z,65.64
2022-11-15T01:26:58.828Z,65.12
2022-11-15T01:29:43.901Z,63.15
2022-11-15T01:32:29.185Z,63.38
2022-11-15T01:35:14.316Z,63.49
2022-11-15T01:37:59.545Z,63.69
2022-11-15T01:40:44.533Z,63.97
2022-11-15T01:43:35.188Z,63.96
2022-11-15T01:46:32.644Z,65.01
2022-11-15T01:49:20.931Z,65.99
2022-11-15T01:52:10.181Z,66.45
2022-11-15T01:55:06.895Z,66.24
2022-11-15T01:57:54.879Z,65.40
2022-11-15T02:00:40.111Z,65.97
2022-11-15T02:03:35.127Z,66.23
2022-11-15T02:06:21.260Z,66.53
2022-11-15T02:09:06.968Z,66.28
2022-11-15T02:11:52.980Z,66.91
2022-11-15T02:14:39.613Z,64.97
2022-11-15T02:17:52.173Z,65.32
2022-11-15T02:20:44.577Z,66.17
2022-11-15T02:23:44.139Z,66.23
2022-11-15T02:27:00.413Z,65.34
2022-11-15T02:30:19.440Z,65.75
2022-11-15T02:33:12.570Z,65.17
2022-11-15T02:36:19.327Z,64.94
2022-11-15T02:39:14.610Z,64.93
2022-11-15T02:42:45.274Z,64.83
2022-11-15T02:45:34.367Z,65.10
2022-11-15T02:48:21.060Z,66.30
2022-11-15T02:51:06.841Z,67.01
2022-11-15T02:53:51.879Z,66.58
2022-11-15T02:56:36.981Z,66.47
2022-11-15T02:59:57.916Z,65.53
2022-11-15T03:02:43.389Z,65.64
2022-11-15T03:05:38.508Z,65.58
2022-11-15T03:08:29.912Z,66.14
2022-11-15T03:11:17.397Z,65.91
2022-11-15T03:14:29.868Z,65.30
2022-11-15T03:17:31.746Z,66.43
2022-11-15T03:20:18.834Z,66.52
2022-11-15T03:23:09.755Z,67.16
2022-11-15T03:25:56.298Z,67.13
2022-11-15T03:29:10.084Z,66.81
2022-11-15T03:32:01.664Z,67.66
2022-11-15T03:35:01.980Z,68.39
2022-11-15T03:37:54.335Z,69.04
2022-11-15T03:40:41.945Z,68.20
2022-11-15T03:43:47.566Z,68.52
2022-11-15T03:46:35.308Z,68.43
2022-11-15T03:49:28.656Z,67.31
2022-11-15T03:52:13.976Z,68.32
2022-11-15T03:55:01.060Z,67.53
2022-11-15T03:57:47.144Z,67.44
2022-11-15T04:00:32.439Z,67.38
2022-11-15T04:03:18.075Z,68.11
2022-11-15T04:06:03.338Z,68.76
2022-11-15T04:08:48.877Z,68.98
2022-11-15T04:11:34.016Z,69.48
2022-11-15T04:14:19.413Z,69.62
2022-11-15T04:17:04.464Z,69.99
2022-11-15T04:20:08.719Z,67.85
2022-11-15T04:23:16.745Z,68.19
2022-11-15T04:26:05.439Z,68.76
2022-11-15T04:29:09.259Z,68.12
2022-11-15T04:31:54.578Z,68.26
2022-11-15T04:34:39.578Z,68.52
2022-11-15T04:37:24.848Z,68.99
2022-11-15T04:40:11.413Z,69.10
2022-11-15T04:43:03.250Z,68.87
2022-11-15T04:45:48.908Z,67.88
2022-11-15T04:48:33.881Z,67.94
2022-11-15T04:51:19.409Z,67.06
2022-11-15T04:54:04.698Z,67.27
2022-11-15T04:56:51.304Z,67.69
2022-11-15T04:59:36.471Z,67.46
2022-11-15T05:02:22.111Z,67.49
2022-11-15T05:05:07.686Z,68.04
2022-11-15T05:07:52.690Z,68.59
2022-11-15T05:10:38.335Z,68.88
2022-11-15T05:13:23.440Z,69.08
2022-11-15T05:16:08.524Z,68.84
2022-11-15T05:18:54.669Z,68.51
2022-11-15T05:21:40.245Z,68.50
2022-11-15T05:24:25.768Z,68.67
2022-11-15T05:27:11.043Z,68.95
2022-11-15T05:29:56.432Z,68.80
2022-11-15T05:32:41.791Z,69.44
2022-11-15T05:35:32.661Z,70.36
2022-11-15T05:38:17.676Z,70.73
2022-11-15T05:41:03.467Z,70.03
2022-11-15T05:43:49.843Z,70.50
2022-11-15T05:46:35.897Z,70.27
2022-11-15T05:49:23.372Z,69.74
2022-11-15T05:52:11.168Z,69.97
2022-11-15T05:54:57.921Z,70.16
2022-11-15T05:57:43.646Z,70.16
2022-11-15T06:00:29.503Z,70.32
2022-11-15T06:03:15.154Z,70.18
2022-11-15T06:06:00.432Z,70.41
2022-11-15T06:08:45.741Z,69.86
2022-11-15T06:11:30.929Z,69.56
2022-11-15T06:14:16.565Z,69.56
2022-11-15T06:17:08.576Z,69.10
2022-11-15T06:19:56.091Z,69.87
2022-11-15T06:22:41.320Z,69.73
2022-11-15T06:25:27.813Z,70.20
2022-11-15T06:28:13.231Z,70.72
2022-11-15T06:31:10.182Z,70.04
2022-11-15T06:33:55.439Z,70.08
2022-11-15T06:36:42.583Z,69.70
2022-11-15T06:39:28.051Z,68.37
2022-11-15T06:42:13.307Z,68.31
2022-11-15T06:45:02.834Z,68.68
2022-11-15T06:47:48.645Z,68.83
2022-11-15T06:50:33.839Z,69.74
2022-11-15T06:53:19.139Z,69.78
2022-11-15T06:56:10.244Z,69.68
2022-11-15T06:58:56.459Z,69.45
2022-11-15T07:02:13.751Z,69.23
2022-11-15T07:05:01.931Z,69.30
2022-11-15T07:07:53.842Z,69.17
2022-11-15T07:10:38.900Z,69.19
2022-11-15T07:13:35.572Z,69.40
2022-11-15T07:16:21.771Z,69.36
2022-11-15T07:19:07.146Z,69.50
2022-11-15T07:21:52.455Z,68.11
2022-11-15T07:24:42.342Z,68.10
2022-11-15T07:27:27.592Z,67.67
2022-11-15T07:30:15.572Z,67.23
2022-11-15T07:33:02.013Z,68.20
2022-11-15T07:35:50.972Z,67.84
2022-11-15T07:38:42.397Z,68.21
2022-11-15T07:41:30.872Z,67.83
2022-11-15T07:44:16.433Z,68.25
2022-11-15T07:47:01.567Z,67.75
2022-11-15T07:49:47.777Z,67.46
2022-11-15T07:52:32.997Z,67.00
2022-11-15T07:55:18.305Z,66.31
2022-11-15T07:58:09.937Z,65.66
2022-11-15T08:00:55.083Z,65.65
2022-11-15T08:03:40.270Z,65.03
2022-11-15T08:06:25.662Z,62.91
2022-11-15T08:09:10.730Z,63.05
2022-11-15T08:11:56.894Z,63.10
2022-11-15T08:14:42.066Z,63.20
2022-11-15T08:17:27.269Z,63.06
2022-11-15T08:20:12.516Z,61.93
2022-11-15T08:23:02.713Z,61.09
2022-11-15T08:25:47.740Z,59.40
2022-11-15T08:28:33.536Z,59.80
2022-11-15T08:31:19.268Z,59.73
2022-11-15T08:34:05.681Z,60.59
2022-11-15T08:36:51.034Z,60.98
2022-11-15T08:39:36.304Z,60.76
2022-11-15T08:42:21.696Z,60.15
2022-11-15T08:45:08.517Z,60.62
2022-11-15T08:47:54.588Z,60.30
2022-11-15T08:50:39.972Z,60.44
2022-11-15T08:53:25.375Z,59.72
2022-11-15T08:56:14.969Z,60.98
2022-11-15T08:59:01.547Z,61.88
2022-11-15T09:01:46.947Z,61.48
2022-11-15T09:04:32.155Z,61.64
2022-11-15T09:07:17.836Z,60.86
2022-11-15T09:10:04.143Z,61.02
2022-11-15T09:12:49.583Z,60.67
2022-11-15T09:15:35.313Z,61.29
2022-11-15T09:18:23.452Z,60.98
2022-11-15T09:21:09.589Z,61.84
2022-11-15T09:23:55.001Z,60.76
2022-11-15T09:26:40.761Z,60.42
2022-11-15T09:29:26.042Z,59.67
2022-11-15T09:32:11.138Z,58.86
2022-11-15T09:34:56.877Z,57.82
2022-11-15T09:37:41.793Z,58.52
2022-11-15T09:40:27.348Z,57.63
2022-11-15T09:43:48.491Z,56.20
2022-11-15T09:46:51.793Z,56.78
2022-11-15T09:49:43.314Z,54.67
2022-11-15T09:52:25.713Z,56.27
2022-11-15T09:54:55.490Z,57.49
2022-11-15T09:57:32.771Z,56.70
2022-11-15T10:03:22.964Z,57.51
2022-11-15T10:05:50.586Z,57.34
2022-11-15T10:08:22.346Z,56.81
2022-11-15T10:10:49.695Z,53.76
2022-11-15T10:13:21.269Z,55.08
2022-11-15T10:15:49.280Z,54.55
2022-11-15T10:18:17.849Z,53.48
2022-11-15T10:20:47.930Z,53.42
2022-11-15T10:23:15.290Z,55.69
2022-11-15T10:25:41.682Z,56.47
2022-11-15T10:28:17.613Z,55.59
2022-11-15T10:30:46.224Z,53.64
2022-11-15T10:33:27.112Z,54.33
2022-11-15T10:36:12.332Z,54.14
2022-11-15T10:38:50.961Z,55.88
2022-11-15T10:41:18.719Z,56.55
2022-11-15T10:43:45.374Z,56.30
2022-11-15T10:46:45.578Z,56.58
2022-11-15T10:49:14.246Z,56.80
2022-11-15T10:51:42.507Z,56.18
2022-11-15T10:54:12.334Z,56.82
2022-11-15T10:56:40.533Z,56.80
2022-11-15T10:59:09.065Z,56.62
2022-11-15T11:01:35.547Z,58.88
2022-11-15T11:04:03.290Z,57.39
2022-11-15T11:06:29.746Z,56.74
2022-11-15T11:08:56.143Z,57.79
2022-11-15T11:11:22.822Z,60.32
2022-11-15T11:13:49.248Z,58.35
2022-11-15T11:16:15.640Z,59.24
2022-11-15T11:18:57.317Z,58.46
2022-11-15T11:21:31.930Z,60.45
2022-11-15T11:24:04.366Z,60.35
2022-11-15T11:26:33.850Z,59.86
2022-11-15T11:29:05.931Z,60.27
2022-11-15T11:31:35.342Z,61.82
2022-11-15T11:34:01.715Z,61.04
2022-11-15T11:36:36.072Z,60.25
2022-11-15T11:39:14.635Z,58.37
2022-11-15T11:42:10.375Z,59.58
2022-11-15T11:44:39.985Z,58.06
2022-11-15T11:47:13.075Z,58.13
2022-11-15T11:49:40.446Z,57.13
2022-11-15T11:52:10.076Z,58.69
2022-11-15T11:54:48.409Z,58.10
2022-11-15T11:57:22.707Z,56.97
2022-11-15T11:59:49.081Z,57.83
2022-11-15T12:02:17.799Z,57.89
2022-11-15T12:04:45.580Z,57.72
2022-11-15T12:07:12.072Z,57.65
2022-11-15T12:09:47.539Z,57.75
2022-11-15T12:12:19.379Z,55.97
2022-11-15T12:14:56.963Z,57.38
2022-11-15T12:17:27.405Z,55.82
2022-11-15T12:19:57.318Z,59.11
2022-11-15T12:22:24.893Z,57.03
2022-11-15T12:24:53.215Z,55.75
2022-11-15T12:27:26.357Z,56.39
2022-11-15T12:29:54.522Z,56.49
2022-11-15T12:32:47.436Z,56.63
2022-11-15T12:35:43.378Z,55.82
2022-11-15T12:38:10.632Z,56.25
2022-11-15T12:40:41.370Z,56.74
2022-11-15T12:43:27.761Z,56.66
2022-11-15T12:45:54.240Z,56.33
2022-11-15T12:48:40.760Z,55.87
2022-11-15T12:51:07.193Z,55.35
2022-11-15T12:53:34.166Z,56.76
2022-11-15T12:56:13.025Z,58.15
2022-11-15T12:58:42.458Z,59.38
2022-11-15T13:01:09.073Z,58.45
2022-11-15T13:03:35.776Z,59.25
2022-11-15T13:06:03.902Z,59.29
2022-11-15T13:08:49.294Z,58.96
2022-11-15T13:11:57.494Z,57.51
2022-11-15T13:14:41.774Z,58.34
2022-11-15T13:17:20.674Z,57.39
2022-11-15T13:19:48.252Z,58.81
2022-11-15T13:22:33.891Z,57.70
2022-11-15T13:25:02.110Z,58.82
2022-11-15T13:27:28.633Z,58.17
2022-11-15T13:29:55.341Z,58.66
2022-11-15T13:32:21.794Z,59.33
2022-11-15T13:34:51.940Z,58.55
2022-11-15T13:37:22.057Z,58.75
2022-11-15T13:39:49.202Z,56.91
2022-11-15T13:42:16.396Z,57.06
2022-11-15T13:44:56.028Z,56.37
2022-11-15T13:47:22.559Z,55.78
2022-11-15T13:49:49.089Z,55.67
2022-11-15T13:52:17.287Z,56.68
2022-11-15T13:54:46.915Z,55.90
2022-11-15T13:57:23.109Z,57.24
2022-11-15T13:59:50.624Z,55.81
2022-11-15T14:02:18.311Z,56.15
2022-11-15T14:04:49.323Z,56.54
2022-11-15T14:07:17.357Z,56.90
2022-11-15T14:09:46.192Z,57.15
2022-11-15T14:12:30.280Z,56.89
2022-11-15T14:14:57.287Z,54.89
2022-11-15T14:17:29.828Z,55.93
2022-11-15T14:19:56.696Z,55.74
2022-11-15T14:22:26.368Z,55.88
2022-11-15T14:25:16.395Z,57.10
2022-11-15T14:27:43.626Z,57.05
2022-11-15T14:30:13.902Z,57.66
2022-11-15T14:32:45.077Z,58.65
2022-11-15T14:35:14.031Z,59.21
2022-11-15T14:37:40.463Z,60.63
2022-11-15T14:40:07.270Z,62.43
2022-11-15T14:42:33.713Z,63.35
2022-11-15T14:45:00.286Z,63.96
2022-11-15T14:47:26.798Z,64.63
2022-11-15T14:49:53.263Z,64.71
2022-11-15T14:52:25.233Z,65.11
2022-11-15T14:54:56.163Z,65.62
2022-11-15T14:57:22.728Z,65.96
2022-11-15T14:59:49.180Z,66.53
2022-11-15T15:02:19.958Z,66.33
2022-11-15T15:04:46.658Z,66.12
2022-11-15T15:07:13.611Z,66.20
2022-11-15T15:09:40.327Z,65.98
2022-11-15T15:12:11.915Z,65.08
2022-11-15T15:14:38.485Z,64.41
2022-11-15T15:17:05.742Z,63.71
2022-11-15T15:19:32.292Z,64.35
2022-11-15T15:21:58.813Z,64.32
2022-11-15T15:24:25.253Z,65.20
2022-11-15T15:26:51.674Z,64.91
2022-11-15T15:29:18.052Z,64.51
2022-11-15T15:31:44.473Z,64.10
2022-11-15T15:34:16.457Z,64.16
2022-11-15T15:36:43.458Z,63.91
2022-11-15T15:39:10.809Z,64.03
2022-11-15T15:41:37.220Z,63.33
2022-11-15T15:44:03.620Z,63.66
2022-11-15T15:46:30.144Z,64.33
2022-11-15T15:48:56.566Z,63.18
2022-11-15T15:51:23.009Z,63.88
2022-11-15T15:53:49.429Z,64.32
2022-11-15T15:56:15.900Z,64.73
2022-11-15T15:58:42.332Z,64.71
2022-11-15T16:01:08.924Z,64.32
2022-11-15T16:03:35.487Z,64.06
2022-11-15T16:06:02.102Z,63.76
2022-11-15T16:08:42.496Z,63.31
2022-11-15T16:11:14.415Z,63.75
2022-11-15T16:13:40.916Z,63.23
2022-11-15T16:16:08.843Z,63.66
2022-11-15T16:18:35.524Z,63.67
2022-11-15T16:21:02.403Z,63.40
2022-11-15T16:23:28.853Z,62.85
2022-11-15T16:25:56.615Z,63.77
2022-11-15T16:28:25.015Z,63.14
2022-11-15T16:31:00.588Z,63.08
2022-11-15T16:33:27.159Z,63.10
2022-11-15T16:35:53.683Z,62.99
2022-11-15T16:38:21.032Z,63.01
2022-11-15T16:40:47.672Z,62.41
2022-11-15T16:43:14.588Z,62.33
2022-11-15T16:45:41.421Z,62.29
2022-11-15T16:48:16.670Z,62.84
2022-11-15T16:50:43.138Z,62.07
2022-11-15T16:53:09.625Z,61.85
2022-11-15T16:55:36.348Z,62.37
2022-11-15T16:58:02.935Z,62.32
2022-11-15T17:00:29.480Z,61.93
2022-11-15T17:02:56.212Z,61.64
2022-11-15T17:05:23.275Z,60.46
2022-11-15T17:07:50.522Z,61.46
2022-11-15T17:10:16.915Z,61.18
2022-11-15T17:12:43.350Z,61.19
2022-11-15T17:15:11.259Z,60.50
2022-11-15T17:17:37.800Z,60.11
2022-11-15T17:20:09.875Z,60.77
2022-11-15T17:22:36.726Z,60.48
2022-11-15T17:25:03.560Z,60.41
2022-11-15T17:27:30.438Z,60.35
2022-11-15T17:29:56.985Z,61.31
2022-11-15T17:32:23.748Z,61.02
2022-11-15T17:34:50.254Z,61.21
2022-11-15T17:37:16.737Z,61.12
2022-11-15T17:39:43.245Z,61.58
2022-11-15T17:42:09.787Z,61.38
2022-11-15T17:44:36.257Z,61.43
2022-11-15T17:47:02.777Z,61.47
2022-11-15T17:49:29.944Z,62.07
2022-11-15T17:51:56.822Z,62.02
2022-11-15T17:54:23.427Z,61.76
2022-11-15T17:56:49.890Z,61.32
2022-11-15T17:59:21.195Z,62.22
2022-11-15T18:01:48.169Z,61.90
2022-11-15T18:04:15.383Z,61.74
2022-11-15T18:06:42.200Z,62.22
2022-11-15T18:09:08.794Z,61.77
2022-11-15T18:11:38.340Z,62.15
2022-11-15T18:14:06.174Z,62.46
2022-11-15T18:16:33.658Z,62.90
2022-11-15T18:19:00.419Z,62.07
2022-11-15T18:21:28.266Z,63.52
2022-11-15T18:23:56.721Z,62.85
2022-11-15T18:26:27.349Z,62.70
2022-11-15T18:28:55.347Z,62.88
2022-11-15T18:31:23.069Z,62.82
2022-11-15T18:33:50.053Z,63.14
2022-11-15T18:36:17.845Z,62.98
2022-11-15T18:38:44.311Z,62.94
2022-11-15T18:41:10.798Z,62.58
2022-11-15T18:43:37.612Z,62.79
2022-11-15T18:46:04.853Z,62.39
2022-11-15T18:48:31.735Z,62.38
2022-11-15T18:51:05.095Z,62.95
2022-11-15T18:53:32.588Z,62.06
2022-11-15T18:56:02.570Z,62.77
2022-11-15T18:58:32.765Z,62.47
2022-11-15T19:01:02.841Z,62.88
2022-11-15T19:03:37.062Z,63.75
2022-11-15T19:06:07.607Z,63.66
2022-11-15T19:08:35.525Z,64.66
2022-11-15T19:11:03.319Z,65.12
2022-11-15T19:13:30.057Z,65.72
2022-11-15T19:15:57.660Z,65.86
2022-11-15T19:18:24.085Z,65.84
2022-11-15T19:20:50.622Z,65.64
2022-11-15T19:23:17.116Z,65.54
2022-11-15T19:25:43.605Z,67.08
2022-11-15T19:28:11.787Z,66.97
2022-11-15T19:30:38.258Z,67.27
2022-11-15T19:33:04.663Z,67.75
2022-11-15T19:35:31.291Z,67.43
2022-11-15T19:37:57.795Z,67.42
2022-11-15T19:40:24.197Z,67.88
2022-11-15T19:42:50.643Z,67.98
2022-11-15T19:45:17.178Z,68.20
2022-11-15T19:47:43.657Z,68.36
2022-11-15T19:50:10.596Z,68.44
2022-11-15T19:52:37.070Z,68.35
2022-11-15T19:55:03.603Z,68.36
2022-11-15T19:57:30.044Z,68.47
2022-11-15T19:59:56.467Z,68.30
2022-11-15T20:02:22.905Z,68.84
2022-11-15T20:04:49.348Z,68.72
2022-11-15T20:07:15.947Z,68.75
2022-11-15T20:09:42.538Z,68.66
2022-11-15T20:12:09.015Z,68.30
2022-11-15T20:14:35.648Z,68.07
2022-11-15T20:17:02.124Z,68.27
2022-11-15T20:19:28.646Z,68.41
2022-11-15T20:21:55.387Z,68.56
2022-11-15T20:24:21.882Z,68.14
2022-11-15T20:26:48.351Z,68.56
2022-11-15T20:29:14.745Z,68.33
2022-11-15T20:31:41.163Z,68.54
2022-11-15T20:34:07.644Z,68.53
2022-11-15T20:36:34.400Z,68.82
2022-11-15T20:39:01.028Z,69.00
2022-11-15T20:41:27.830Z,68.95
2022-11-15T20:43:54.425Z,69.08
2022-11-15T20:46:21.142Z,69.03
2022-11-15T20:48:48.086Z,69.00
2022-11-15T20:51:15.680Z,68.81
2022-11-15T20:53:42.858Z,68.27
2022-11-15T20:56:13.885Z,68.20
2022-11-15T20:58:40.504Z,68.41
2022-11-15T21:01:07.758Z,67.69
2022-11-15T21:03:35.336Z,68.28
2022-11-15T21:06:01.939Z,68.41
2022-11-15T21:08:28.381Z,68.83
2022-11-15T21:11:13.551Z,68.96
2022-11-15T21:13:40.009Z,68.76
2022-11-15T21:16:06.745Z,69.09
2022-11-15T21:18:33.523Z,68.68
2022-11-15T21:21:09.396Z,68.62
2022-11-15T21:23:36.541Z,68.53
2022-11-15T21:26:03.281Z,68.77
2022-11-15T21:28:29.705Z,68.73
2022-11-15T21:30:56.893Z,68.86
2022-11-15T21:33:23.903Z,69.32
2022-11-15T21:35:51.395Z,68.90
2022-11-15T21:38:18.277Z,68.88
2022-11-15T21:40:44.780Z,68.64
2022-11-15T21:43:11.287Z,68.75
2022-11-15T21:45:38.188Z,68.30
2022-11-15T21:48:04.808Z,68.58
2022-11-15T21:50:31.180Z,68.36
2022-11-15T21:52:57.609Z,67.95
2022-11-15T21:55:24.147Z,68.38
2022-11-15T21:57:50.706Z,68.04
2022-11-15T22:00:36.263Z,68.29
2022-11-15T22:03:02.727Z,68.72
2022-11-15T22:05:29.479Z,69.11
2022-11-15T22:07:55.904Z,68.29
2022-11-15T22:10:22.395Z,68.77
2022-11-15T22:12:48.794Z,68.19
2022-11-15T22:15:15.290Z,68.18
2022-11-15T22:18:00.275Z,67.93
2022-11-15T22:20:44.196Z,67.32
2022-11-15T22:23:11.157Z,68.14
2022-11-15T22:25:37.611Z,68.58
2022-11-15T22:28:04.121Z,68.66
2022-11-15T22:30:30.673Z,68.41
2022-11-15T22:32:57.094Z,68.20
2022-11-15T22:35:23.539Z,68.06
2022-11-15T22:37:50.386Z,69.53
2022-11-15T22:40:20.237Z,69.33
2022-11-15T22:42:46.700Z,68.72
2022-11-15T22:45:13.289Z,68.86
2022-11-15T22:47:40.251Z,69.01
2022-11-15T22:50:06.869Z,69.03
2022-11-15T22:52:33.333Z,69.13
2022-11-15T22:54:59.712Z,69.22
2022-11-15T22:57:26.186Z,69.22
2022-11-15T22:59:52.590Z,69.33
2022-11-15T23:02:19.083Z,69.21
2022-11-15T23:04:45.791Z,69.41
2022-11-15T23:07:12.519Z,69.00
2022-11-15T23:09:39.206Z,68.92
2022-11-15T23:12:24.457Z,69.00
2022-11-15T23:14:50.835Z,68.79
2022-11-15T23:17:17.428Z,69.48
2022-11-15T23:19:43.885Z,69.06
2022-11-15T23:22:29.119Z,69.24
2022-11-15T23:24:56.469Z,69.16
2022-11-15T23:27:23.918Z,69.26
2022-11-15T23:30:08.992Z,69.35
2022-11-15T23:32:54.137Z,68.96
2022-11-15T23:35:21.120Z,69.10
2022-11-15T23:37:47.555Z,69.16
2022-11-15T23:40:13.977Z,69.65
2022-11-15T23:42:40.400Z,69.30
2022-11-15T23:45:06.983Z,69.41
2022-11-15T23:47:33.427Z,69.35
2022-11-15T23:49:59.816Z,69.74
2022-11-15T23:52:26.314Z,69.80
2022-11-15T23:54:52.780Z,69.47
2022-11-15T23:57:19.231Z,69.35
2022-11-15T23:59:45.690Z,68.92
